createdAt,value
2019-04-05T00:00:00.924Z,7.00
2019-04-05T00:02:29.296Z,7.00
2019-04-05T00:04:57.687Z,7.00
2019-04-05T00:07:26.073Z,7.00
2019-04-05T00:09:54.457Z,7.10
2019-04-05T00:12:22.835Z,7.00
2019-04-05T00:14:51.238Z,7.00
2019-04-05T00:17:19.615Z,7.10
2019-04-05T00:19:48.212Z,7.10
2019-04-05T00:22:16.597Z,7.10
2019-04-05T00:24:44.992Z,7.10
2019-04-05T00:27:13.435Z,7.10
2019-04-05T00:29:41.840Z,7.00
2019-04-05T00:32:10.238Z,7.00
2019-04-05T00:34:38.636Z,7.00
2019-04-05T00:37:07.011Z,7.00
2019-04-05T00:39:35.425Z,7.00
2019-04-05T00:42:03.810Z,7.00
2019-04-05T00:44:32.208Z,6.90
2019-04-05T00:47:00.599Z,7.00
2019-04-05T00:49:28.996Z,7.00
2019-04-05T00:51:57.368Z,6.90
2019-04-05T00:54:25.767Z,6.90
2019-04-05T00:56:54.152Z,6.90
2019-04-05T00:59:22.564Z,6.80
2019-04-05T01:01:50.928Z,6.80
2019-04-05T01:04:19.335Z,6.80
2019-04-05T01:06:47.720Z,6.80
2019-04-05T01:09:16.125Z,6.80
2019-04-05T01:11:44.500Z,6.90
2019-04-05T01:14:12.896Z,6.90
2019-04-05T01:16:41.280Z,6.80
2019-04-05T01:19:09.672Z,6.90
2019-04-05T01:21:40.883Z,6.90
2019-04-05T01:24:09.293Z,6.90
2019-04-05T01:26:37.669Z,6.90
2019-04-05T01:29:06.071Z,6.90
2019-04-05T01:31:34.452Z,6.80
2019-04-05T01:34:05.407Z,6.90
2019-04-05T01:36:32.884Z,6.90
2019-04-05T01:39:01.288Z,6.80
2019-04-05T01:41:29.675Z,6.80
2019-04-05T01:43:58.395Z,6.80
2019-04-05T01:46:26.777Z,6.80
2019-04-05T01:48:55.168Z,6.90
2019-04-05T01:51:23.563Z,6.90
2019-04-05T01:53:51.948Z,6.90
2019-04-05T01:56:20.352Z,6.90
2019-04-05T01:58:48.734Z,6.90
2019-04-05T02:01:17.129Z,6.90
2019-04-05T02:03:45.510Z,7.00
2019-04-05T02:06:13.924Z,6.90
2019-04-05T02:08:42.293Z,7.00
2019-04-05T02:11:10.686Z,7.00
2019-04-05T02:13:39.066Z,6.90
2019-04-05T02:16:07.467Z,6.90
2019-04-05T02:18:35.848Z,6.90
2019-04-05T02:21:04.304Z,6.90
2019-04-05T02:23:32.679Z,6.80
2019-04-05T02:26:01.072Z,6.90
2019-04-05T02:28:29.440Z,7.00
2019-04-05T02:30:57.863Z,6.90
2019-04-05T02:33:26.216Z,6.90
2019-04-05T02:35:54.612Z,6.90
2019-04-05T02:38:22.977Z,6.80
2019-04-05T02:40:51.373Z,6.80
2019-04-05T02:43:19.757Z,6.80
2019-04-05T02:45:48.154Z,6.70
2019-04-05T02:48:16.537Z,6.70
2019-04-05T02:50:47.060Z,6.70
2019-04-05T02:53:15.434Z,6.70
2019-04-05T02:55:44.503Z,6.70
2019-04-05T02:58:12.882Z,6.70
2019-04-05T03:00:42.187Z,6.60
2019-04-05T03:03:10.501Z,6.60
2019-04-05T03:05:38.892Z,6.70
2019-04-05T03:08:07.266Z,6.80
2019-04-05T03:10:53.161Z,6.80
2019-04-05T03:13:23.463Z,6.80
2019-04-05T03:15:52.801Z,6.80
2019-04-05T03:18:21.936Z,6.80
2019-04-05T03:20:50.356Z,6.70
2019-04-05T03:23:18.717Z,6.80
2019-04-05T03:25:48.339Z,6.70
2019-04-05T03:28:16.788Z,6.70
2019-04-05T03:30:45.191Z,6.60
2019-04-05T03:33:13.549Z,6.60
2019-04-05T03:35:41.944Z,6.70
2019-04-05T03:38:16.058Z,6.70
2019-04-05T03:40:44.456Z,6.70
2019-04-05T03:43:12.842Z,6.60
2019-04-05T03:45:41.245Z,6.70
2019-04-05T03:48:09.654Z,6.60
2019-04-05T03:50:38.043Z,6.70
2019-04-05T03:53:06.422Z,6.50
2019-04-05T03:55:34.818Z,6.50
2019-04-05T03:58:03.765Z,6.50
2019-04-05T04:00:32.167Z,6.50
2019-04-05T04:03:00.545Z,6.40
2019-04-05T04:05:28.961Z,6.40
2019-04-05T04:07:57.340Z,6.20
2019-04-05T04:10:25.798Z,6.30
2019-04-05T04:12:54.237Z,6.30
2019-04-05T04:15:22.618Z,6.20
2019-04-05T04:17:51.044Z,6.30
2019-04-05T04:20:28.522Z,6.30
2019-04-05T04:22:56.931Z,6.40
2019-04-05T04:25:25.309Z,6.40
2019-04-05T04:27:53.712Z,6.40
2019-04-05T04:30:22.098Z,6.50
2019-04-05T04:32:50.507Z,6.50
2019-04-05T04:35:18.891Z,6.50
2019-04-05T04:37:47.284Z,6.50
2019-04-05T04:40:15.664Z,6.60
2019-04-05T04:42:44.061Z,6.60
2019-04-05T04:45:13.043Z,6.60
2019-04-05T04:47:41.684Z,6.50
2019-04-05T04:50:10.064Z,6.50
2019-04-05T04:52:38.465Z,6.50
2019-04-05T04:55:07.203Z,6.50
2019-04-05T04:57:35.605Z,6.40
2019-04-05T05:00:04.920Z,6.50
2019-04-05T05:02:33.320Z,6.40
2019-04-05T05:05:01.703Z,6.30
2019-04-05T05:07:30.087Z,6.30
2019-04-05T05:09:58.552Z,6.30
2019-04-05T05:12:26.956Z,6.30
2019-04-05T05:14:55.339Z,6.30
2019-04-05T05:17:23.752Z,6.40
2019-04-05T05:19:55.073Z,6.40
2019-04-05T05:22:23.464Z,6.40
2019-04-05T05:24:51.843Z,6.50
2019-04-05T05:27:20.240Z,6.50
2019-04-05T05:29:48.620Z,6.50
2019-04-05T05:32:17.020Z,6.60
2019-04-05T05:34:45.393Z,6.60
2019-04-05T05:37:13.790Z,6.60
2019-04-05T05:39:42.187Z,6.60
2019-04-05T05:42:10.584Z,6.60
2019-04-05T05:44:38.976Z,6.70
2019-04-05T05:47:07.411Z,6.70
2019-04-05T05:49:35.798Z,6.80
2019-04-05T05:52:04.207Z,6.90
2019-04-05T05:54:32.584Z,6.90
2019-04-05T05:57:00.983Z,6.90
2019-04-05T05:59:30.327Z,6.90
2019-04-05T06:01:59.300Z,7.10
2019-04-05T06:04:27.691Z,7.10
2019-04-05T06:06:56.109Z,7.10
2019-04-05T06:09:30.520Z,7.20
2019-04-05T06:11:58.934Z,7.20
2019-04-05T06:14:27.323Z,7.20
2019-04-05T06:16:55.728Z,7.10
2019-04-05T06:19:24.105Z,7.10
2019-04-05T06:21:52.508Z,7.10
2019-04-05T06:24:20.908Z,7.20
2019-04-05T06:26:49.292Z,7.20
2019-04-05T06:29:17.705Z,7.20
2019-04-05T06:31:46.085Z,7.30
2019-04-05T06:34:14.480Z,7.40
2019-04-05T06:36:42.853Z,7.40
2019-04-05T06:39:11.253Z,7.50
2019-04-05T06:41:39.642Z,7.60
2019-04-05T06:44:08.043Z,7.60
2019-04-05T06:46:36.420Z,7.70
2019-04-05T06:49:04.820Z,7.60
2019-04-05T06:51:33.201Z,7.50
2019-04-05T06:54:03.354Z,7.50
2019-04-05T06:56:31.628Z,7.40
2019-04-05T06:59:00.037Z,7.40
2019-04-05T07:01:28.420Z,7.40
2019-04-05T07:03:56.816Z,7.20
2019-04-05T07:06:25.219Z,7.20
2019-04-05T07:08:54.267Z,7.20
2019-04-05T07:11:22.748Z,7.20
2019-04-05T07:13:51.147Z,7.30
2019-04-05T07:16:19.536Z,7.30
2019-04-05T07:18:47.949Z,7.40
2019-04-05T07:21:17.589Z,7.40
2019-04-05T07:23:45.997Z,7.50
2019-04-05T07:26:14.367Z,7.50
2019-04-05T07:28:42.772Z,7.60
2019-04-05T07:31:11.219Z,7.60
2019-04-05T07:33:39.625Z,7.70
2019-04-05T07:36:07.999Z,7.60
2019-04-05T07:38:36.409Z,7.50
2019-04-05T07:41:04.785Z,7.60
2019-04-05T07:43:33.198Z,7.60
2019-04-05T07:46:01.576Z,7.60
2019-04-05T07:48:29.956Z,7.60
2019-04-05T07:50:58.371Z,7.70
2019-04-05T07:53:26.752Z,7.70
2019-04-05T07:55:55.160Z,7.80
2019-04-05T07:58:23.560Z,7.80
2019-04-05T08:00:54.626Z,7.90
2019-04-05T08:03:23.081Z,8.00
2019-04-05T08:05:51.716Z,7.90
2019-04-05T08:08:35.419Z,7.90
2019-04-05T08:11:03.844Z,7.90
2019-04-05T08:13:32.219Z,7.90
2019-04-05T08:16:01.418Z,7.80
2019-04-05T08:18:29.903Z,7.80
2019-04-05T08:20:58.316Z,7.80
2019-04-05T08:23:26.700Z,7.80
2019-04-05T08:25:55.103Z,7.90
2019-04-05T08:28:23.482Z,8.00
2019-04-05T08:30:51.878Z,8.00
2019-04-05T08:33:20.268Z,8.00
2019-04-05T08:35:48.664Z,8.00
2019-04-05T08:38:17.048Z,8.00
2019-04-05T08:40:45.459Z,8.00
2019-04-05T08:43:13.834Z,8.10
2019-04-05T08:45:42.235Z,8.10
2019-04-05T08:48:10.632Z,8.10
2019-04-05T08:50:39.041Z,8.20
2019-04-05T08:53:07.424Z,8.20
2019-04-05T08:55:35.818Z,8.20
2019-04-05T08:58:04.273Z,8.20
2019-04-05T09:00:32.661Z,8.20
2019-04-05T09:03:01.045Z,8.20
2019-04-05T09:05:29.440Z,8.30
2019-04-05T09:07:57.835Z,8.20
2019-04-05T09:10:26.241Z,8.10
2019-04-05T09:12:54.622Z,8.30
2019-04-05T09:15:23.077Z,8.40
2019-04-05T09:17:51.396Z,8.50
2019-04-05T09:20:19.806Z,8.50
2019-04-05T09:22:48.185Z,8.60
2019-04-05T09:25:19.606Z,8.80
2019-04-05T09:27:46.615Z,9.10
2019-04-05T09:30:15.187Z,9.30
2019-04-05T09:32:43.568Z,9.60
2019-04-05T09:35:12.048Z,9.80
2019-04-05T09:37:40.433Z,10.20
2019-04-05T09:40:08.856Z,10.50
2019-04-05T09:42:37.256Z,10.70
2019-04-05T09:45:06.382Z,11.00
2019-04-05T09:47:34.788Z,11.00
2019-04-05T09:50:04.647Z,11.00
2019-04-05T09:52:33.040Z,10.70
2019-04-05T09:55:01.428Z,10.80
2019-04-05T09:57:29.902Z,10.80
2019-04-05T09:59:58.291Z,10.70
2019-04-05T10:02:26.713Z,10.60
2019-04-05T10:04:55.087Z,10.70
2019-04-05T10:07:23.504Z,10.90
2019-04-05T10:09:51.947Z,10.90
2019-04-05T10:12:20.352Z,10.60
2019-04-05T10:14:48.732Z,10.30
2019-04-05T10:17:17.135Z,10.50
2019-04-05T10:19:50.229Z,10.30
2019-04-05T10:22:15.678Z,10.30
2019-04-05T10:24:44.165Z,10.50
2019-04-05T10:27:12.570Z,10.50
2019-04-05T10:30:00.949Z,10.30
2019-04-05T10:32:29.364Z,10.30
2019-04-05T10:34:57.755Z,10.20
2019-04-05T10:37:26.205Z,10.40
2019-04-05T10:39:54.585Z,10.70
2019-04-05T10:42:29.249Z,10.80
2019-04-05T10:44:57.644Z,10.50
2019-04-05T10:47:26.064Z,10.40
2019-04-05T10:50:02.989Z,10.50
2019-04-05T10:52:25.387Z,10.50
2019-04-05T10:54:53.771Z,10.60
2019-04-05T10:57:22.177Z,10.70
2019-04-05T10:59:50.586Z,10.40
2019-04-05T11:02:18.972Z,10.40
2019-04-05T11:05:17.622Z,10.50
2019-04-05T11:07:46.059Z,10.20
2019-04-05T11:10:14.496Z,9.80
2019-04-05T11:12:42.900Z,9.50
2019-04-05T11:15:11.279Z,9.50
2019-04-05T11:17:41.491Z,9.50
2019-04-05T11:20:20.714Z,9.70
2019-04-05T11:22:46.650Z,9.90
2019-04-05T11:25:14.367Z,9.90
2019-04-05T11:27:42.780Z,9.70
2019-04-05T11:30:11.148Z,9.80
2019-04-05T11:32:39.556Z,9.80
2019-04-05T11:35:08.103Z,9.70
2019-04-05T11:37:39.365Z,9.60
2019-04-05T11:40:08.389Z,9.80
2019-04-05T11:42:37.388Z,9.80
2019-04-05T11:45:09.995Z,9.90
2019-04-05T11:47:38.750Z,10.00
2019-04-05T11:50:12.825Z,9.90
2019-04-05T11:52:41.237Z,10.00
2019-04-05T11:55:09.620Z,10.10
2019-04-05T11:57:40.966Z,10.20
2019-04-05T12:00:14.328Z,10.10
2019-04-05T12:02:44.379Z,10.30
2019-04-05T12:05:22.532Z,10.40
2019-04-05T12:07:50.404Z,10.30
2019-04-05T12:10:19.571Z,10.30
2019-04-05T12:12:48.193Z,10.20
2019-04-05T12:15:16.529Z,10.10
2019-04-05T12:17:44.981Z,9.90
2019-04-05T12:20:13.388Z,9.70
2019-04-05T12:22:41.815Z,9.80
2019-04-05T12:25:10.229Z,9.90
2019-04-05T12:27:38.638Z,9.90
2019-04-05T12:30:08.753Z,9.80
2019-04-05T12:32:41.317Z,9.70
2019-04-05T12:35:08.499Z,9.70
2019-04-05T12:37:49.440Z,9.60
2019-04-05T12:40:09.812Z,9.60
2019-04-05T12:45:45.693Z,9.70
2019-04-05T12:48:15.999Z,9.70
2019-04-05T12:50:44.900Z,9.90
2019-04-05T12:53:13.951Z,10.10
2019-04-05T12:55:42.371Z,10.20
2019-04-05T12:58:10.745Z,10.30
2019-04-05T13:00:39.144Z,10.20
2019-04-05T13:03:07.536Z,9.90
2019-04-05T13:05:38.984Z,10.00
2019-04-05T13:08:07.405Z,10.20
2019-04-05T13:10:35.844Z,10.20
2019-04-05T13:13:04.224Z,10.00
2019-04-05T13:15:32.617Z,10.10
2019-04-05T13:18:01.394Z,10.10
2019-04-05T13:20:30.359Z,10.10
2019-04-05T13:23:02.506Z,10.00
2019-04-05T13:25:29.340Z,10.10
2019-04-05T13:27:57.756Z,10.20
2019-04-05T13:30:26.145Z,10.10
2019-04-05T13:32:54.552Z,10.20
2019-04-05T13:35:22.982Z,10.20
2019-04-05T13:37:51.387Z,10.10
2019-04-05T13:40:19.762Z,10.10
2019-04-05T13:42:48.168Z,10.20
2019-04-05T13:45:16.552Z,10.50
2019-04-05T13:47:44.960Z,10.70
2019-04-05T13:50:13.339Z,10.90
2019-04-05T13:52:42.305Z,10.90
2019-04-05T13:55:11.518Z,11.00
2019-04-05T13:57:40.929Z,10.90
2019-04-05T14:00:10.630Z,10.80
2019-04-05T14:02:39.004Z,10.60
2019-04-05T14:05:07.490Z,10.40
2019-04-05T14:07:35.874Z,10.30
2019-04-05T14:10:10.639Z,10.20
2019-04-05T14:12:39.808Z,10.10
2019-04-05T14:15:11.224Z,9.90
2019-04-05T14:17:39.455Z,9.90
2019-04-05T14:20:09.251Z,9.90
2019-04-05T14:22:37.873Z,10.00
2019-04-05T14:25:07.102Z,10.10
2019-04-05T14:27:35.654Z,10.00
2019-04-05T14:30:05.912Z,9.90
2019-04-05T14:32:34.326Z,9.80
2019-04-05T14:35:02.772Z,9.80
2019-04-05T14:37:31.213Z,9.80
2019-04-05T14:39:59.662Z,9.80
2019-04-05T14:42:29.605Z,9.80
2019-04-05T14:44:58.337Z,9.90
2019-04-05T14:47:28.273Z,9.90
2019-04-05T14:49:58.296Z,9.90
2019-04-05T14:52:28.859Z,9.90
2019-04-05T14:54:57.821Z,9.90
2019-04-05T14:57:27.459Z,9.90
2019-04-05T14:59:55.920Z,10.00
2019-04-05T15:02:27.664Z,9.90
2019-04-05T15:04:59.260Z,9.80
2019-04-05T15:07:27.682Z,9.90
2019-04-05T15:09:56.127Z,9.90
2019-04-05T15:12:24.572Z,9.90
2019-04-05T15:14:52.964Z,9.90
2019-04-05T15:17:21.497Z,9.90
2019-04-05T15:19:49.960Z,9.90
2019-04-05T15:22:18.393Z,9.90
2019-04-05T15:24:47.128Z,9.90
2019-04-05T15:27:16.081Z,9.90
2019-04-05T15:29:55.652Z,9.80
2019-04-05T15:32:25.457Z,9.80
2019-04-05T15:34:54.103Z,9.80
2019-04-05T15:37:22.475Z,9.80
2019-04-05T15:39:50.873Z,9.80
2019-04-05T15:42:19.245Z,9.70
2019-04-05T15:44:47.992Z,9.70
2019-04-05T15:47:16.447Z,9.70
2019-04-05T15:49:44.821Z,9.70
2019-04-05T15:52:18.869Z,9.80
2019-04-05T15:54:43.359Z,9.70
2019-04-05T15:57:11.753Z,9.70
2019-04-05T15:59:40.130Z,9.70
2019-04-05T16:02:08.707Z,9.80
2019-04-05T16:04:37.062Z,9.80
2019-04-05T16:07:05.455Z,9.90
2019-04-05T16:09:33.827Z,9.90
2019-04-05T16:12:02.346Z,9.90
2019-04-05T16:14:30.712Z,10.00
2019-04-05T16:16:59.108Z,10.00
2019-04-05T16:19:27.498Z,10.00
2019-04-05T16:21:55.895Z,10.00
2019-04-05T16:24:24.286Z,10.00
2019-04-05T16:26:52.679Z,10.00
2019-04-05T16:29:21.602Z,10.00
2019-04-05T16:31:50.016Z,10.00
2019-04-05T16:34:18.639Z,10.10
2019-04-05T16:36:47.008Z,10.10
2019-04-05T16:39:17.083Z,10.10
2019-04-05T16:41:45.518Z,10.00
2019-04-05T16:44:13.921Z,9.90
2019-04-05T16:46:42.299Z,9.90
2019-04-05T16:49:10.687Z,9.90
2019-04-05T16:51:39.075Z,9.90
2019-04-05T16:54:07.459Z,9.90
2019-04-05T16:56:35.880Z,9.90
2019-04-05T16:59:05.410Z,9.90
2019-04-05T17:01:34.414Z,9.90
2019-04-05T17:04:02.751Z,9.90
2019-04-05T17:06:31.159Z,9.90
2019-04-05T17:08:59.535Z,9.80
2019-04-05T17:11:27.929Z,9.80
2019-04-05T17:13:59.437Z,9.80
2019-04-05T17:16:26.756Z,9.80
2019-04-05T17:18:55.082Z,9.80
2019-04-05T17:21:23.479Z,9.80
2019-04-05T17:23:51.883Z,9.80
2019-04-05T17:26:20.279Z,9.80
2019-04-05T17:28:48.661Z,9.80
2019-04-05T17:31:17.064Z,9.70
2019-04-05T17:33:48.493Z,9.70
2019-04-05T17:36:16.959Z,9.80
2019-04-05T17:38:45.302Z,9.70
2019-04-05T17:41:13.833Z,9.60
2019-04-05T17:43:42.219Z,9.60
2019-04-05T17:46:10.608Z,9.60
2019-04-05T17:48:39.013Z,9.60
2019-04-05T17:51:07.401Z,9.60
2019-04-05T17:53:35.822Z,9.60
2019-04-05T17:56:04.298Z,9.50
2019-04-05T17:58:32.866Z,9.50
2019-04-05T18:01:01.324Z,9.50
2019-04-05T18:03:29.740Z,9.50
2019-04-05T18:05:58.134Z,9.50
2019-04-05T18:08:27.640Z,9.50
2019-04-05T18:10:56.482Z,9.50
2019-04-05T18:13:24.908Z,9.50
2019-04-05T18:15:53.371Z,9.50
2019-04-05T18:18:21.834Z,9.60
2019-04-05T18:20:50.236Z,9.50
2019-04-05T18:23:25.219Z,9.50
2019-04-05T18:25:51.368Z,9.40
2019-04-05T18:28:19.854Z,9.40
2019-04-05T18:30:48.253Z,9.40
2019-04-05T18:33:16.691Z,9.30
2019-04-05T18:35:45.410Z,9.30
2019-04-05T18:38:13.774Z,9.40
2019-04-05T18:40:42.594Z,9.40
2019-04-05T18:43:11.523Z,9.40
2019-04-05T18:45:40.526Z,9.50
2019-04-05T18:48:09.007Z,9.40
2019-04-05T18:50:37.392Z,9.40
2019-04-05T18:53:05.982Z,9.40
2019-04-05T18:55:35.293Z,9.40
2019-04-05T19:01:20.408Z,9.40
2019-04-05T19:04:13.510Z,9.40
2019-04-05T19:06:41.947Z,9.40
2019-04-05T19:09:11.894Z,9.40
2019-04-05T19:11:40.578Z,9.40
2019-04-05T19:14:09.005Z,9.40
2019-04-05T19:16:37.668Z,9.40
2019-04-05T19:19:07.990Z,9.40
2019-04-05T19:21:38.220Z,9.40
2019-04-05T19:24:06.598Z,9.40
2019-04-05T19:26:35.077Z,9.40
2019-04-05T19:29:04.087Z,9.40
2019-04-05T19:49:03.702Z,9.40
2019-04-05T19:51:32.184Z,9.40
2019-04-05T19:54:01.258Z,9.40
2019-04-05T19:56:30.150Z,9.30
2019-04-05T19:58:58.552Z,9.40
2019-04-05T20:01:26.989Z,9.50
2019-04-05T20:03:55.408Z,9.40
2019-04-05T20:06:23.790Z,9.50
2019-04-05T20:08:52.214Z,9.50
2019-04-05T20:11:20.695Z,9.30
2019-04-05T20:13:49.285Z,9.30
2019-04-05T20:16:17.670Z,9.30
2019-04-05T20:18:46.171Z,9.20
2019-04-05T20:21:14.607Z,9.20
2019-04-05T20:23:47.490Z,9.00
2019-04-05T20:26:13.207Z,9.00
2019-04-05T20:28:41.669Z,8.90
2019-04-05T20:31:10.174Z,8.90
2019-04-05T20:33:38.643Z,8.90
2019-04-05T20:36:07.121Z,8.90
2019-04-05T20:38:35.591Z,8.90
2019-04-05T20:41:04.012Z,8.80
2019-04-05T20:43:34.674Z,8.80
2019-04-05T20:46:03.204Z,8.70
2019-04-05T20:48:31.636Z,8.60
2019-04-05T20:51:00.218Z,8.60
2019-04-05T20:53:28.634Z,8.50
2019-04-05T20:55:57.155Z,8.20
2019-04-05T20:58:25.549Z,8.10
2019-04-05T21:00:53.951Z,8.00
2019-04-05T21:03:22.342Z,8.00
2019-04-05T21:05:50.757Z,7.90
2019-04-05T21:08:19.150Z,7.80
2019-04-05T21:10:47.570Z,7.80
2019-04-05T21:13:15.957Z,7.80
2019-04-05T21:15:44.365Z,7.80
2019-04-05T21:18:13.054Z,7.80
2019-04-05T21:20:41.595Z,7.60
2019-04-05T21:23:10.091Z,7.50
2019-04-05T21:25:38.579Z,7.50
2019-04-05T21:28:06.969Z,7.50
2019-04-05T21:30:35.381Z,7.40
2019-04-05T21:33:06.274Z,7.30
2019-04-05T21:35:34.730Z,7.30
2019-04-05T21:38:03.130Z,7.40
2019-04-05T21:40:31.521Z,7.40
2019-04-05T21:42:59.901Z,7.40
2019-04-05T21:45:28.356Z,7.30
2019-04-05T21:47:56.727Z,7.20
2019-04-05T21:50:25.131Z,7.20
2019-04-05T21:52:53.515Z,7.00
2019-04-05T21:55:21.913Z,6.90
2019-04-05T21:57:50.351Z,6.90
2019-04-05T22:00:25.027Z,7.00
2019-04-05T22:02:53.423Z,7.10
2019-04-05T22:05:21.803Z,7.10
2019-04-05T22:07:51.521Z,7.10
2019-04-05T22:10:20.184Z,7.10
2019-04-05T22:12:48.562Z,7.10
2019-04-05T22:15:16.957Z,6.90
2019-04-05T22:17:45.335Z,6.80
2019-04-05T22:20:13.752Z,6.80
2019-04-05T22:22:42.112Z,6.90
2019-04-05T22:25:10.507Z,7.00
2019-04-05T22:27:38.887Z,6.90
2019-04-05T22:30:07.347Z,6.90
2019-04-05T22:32:35.729Z,6.80
2019-04-05T22:35:04.461Z,6.80
2019-04-05T22:37:32.839Z,6.70
2019-04-05T22:40:01.247Z,6.60
2019-04-05T22:42:29.619Z,6.70
2019-04-05T22:44:58.014Z,6.70
2019-04-05T22:47:26.386Z,6.60
2019-04-05T22:49:54.797Z,6.70
2019-04-05T22:52:23.164Z,6.70
2019-04-05T22:54:51.554Z,6.60
2019-04-05T22:57:19.935Z,6.40
2019-04-05T22:59:48.325Z,6.20
2019-04-05T23:02:16.720Z,6.30
2019-04-05T23:04:45.096Z,6.20
2019-04-05T23:07:13.503Z,6.30
2019-04-05T23:09:41.927Z,6.10
2019-04-05T23:12:10.452Z,5.90
2019-04-05T23:14:38.873Z,5.70
2019-04-05T23:17:07.307Z,5.60
2019-04-05T23:19:35.737Z,5.70
2019-04-05T23:22:04.243Z,5.60
2019-04-05T23:24:32.676Z,5.60
2019-04-05T23:27:01.141Z,5.70
2019-04-05T23:29:29.543Z,5.60
2019-04-05T23:31:57.936Z,5.60
2019-04-05T23:34:26.328Z,5.60
2019-04-05T23:36:54.712Z,5.60
2019-04-05T23:39:23.119Z,5.50
2019-04-05T23:41:51.488Z,5.60
2019-04-05T23:44:19.864Z,5.70
2019-04-05T23:46:48.255Z,5.70
2019-04-05T23:49:16.706Z,5.80
2019-04-05T23:51:45.092Z,5.80
2019-04-05T23:54:13.473Z,5.80
2019-04-05T23:56:41.874Z,5.40
2019-04-05T23:59:10.245Z,5.20
